Time;durP1;ratioP1;P1;durP2;ratioP2;P2;SDS_P1;SDS_P2;PMS_P1;PMS_P2;Temp;Humidity;BMP_temperature;BMP_pressure;BME280_temperature;BME280_humidity;BME280_pressure;Samples;Min_cycle;Max_cycle;Signal;HPM_P1;HPM_P2
2022/01/11 00:01:49;;;;;;;21.40;17.30;;;1.10;99.90;;;1.89;100.00;99088.31;5204459;28;20225;-64
2022/01/11 00:04:28;;;;;;;20.20;16.90;;;1.20;99.90;;;1.94;100.00;99085.59;5202389;28;20231;-63
2022/01/11 00:07:04;;;;;;;20.67;17.07;;;1.20;99.90;;;1.94;100.00;99083.06;5202195;28;20316;-64
2022/01/11 00:09:39;;;;;;;21.63;17.60;;;1.10;99.90;;;1.94;100.00;99087.22;5205537;28;20231;-62
2022/01/11 00:12:12;;;;;;;23.73;19.50;;;1.10;99.90;;;2.00;100.00;99087.88;5205822;28;20217;-63
2022/01/11 00:14:46;;;;;;;22.00;18.43;;;1.10;99.90;;;2.05;100.00;99089.28;5203496;28;20713;-63
2022/01/11 00:17:19;;;;;;;27.03;18.53;;;1.10;99.90;;;2.13;99.80;99092.66;5203955;28;20683;-63
2022/01/11 00:19:52;;;;;;;23.73;18.13;;;1.10;99.90;;;2.14;98.65;99095.34;5205764;28;20228;-63
2022/01/11 00:22:31;;;;;;;24.00;18.10;;;1.10;99.90;;;2.06;99.39;99093.63;5206612;28;20761;-63
2022/01/11 00:25:04;;;;;;;21.30;18.13;;;1.10;99.90;;;2.13;99.51;99091.03;5206222;28;20236;-63
2022/01/11 00:27:37;;;;;;;22.37;17.97;;;1.10;99.90;;;2.11;99.60;99091.59;5205570;28;21049;-63
2022/01/11 00:30:12;;;;;;;22.00;17.67;;;1.20;99.90;;;2.02;99.67;99097.41;5205118;28;20238;-66
2022/01/11 00:32:50;;;;;;;21.67;16.47;;;1.10;99.90;;;1.98;100.00;99100.34;5207152;28;20225;-63
2022/01/11 00:35:28;;;;;;;22.13;18.07;;;1.10;99.90;;;1.95;100.00;99101.63;5204506;28;20214;-63
2022/01/11 00:38:01;;;;;;;19.57;16.90;;;1.20;99.90;;;1.99;100.00;99103.75;5199231;28;20224;-62
2022/01/11 00:40:34;;;;;;;20.47;18.13;;;1.10;99.90;;;1.95;100.00;99110.09;5205329;28;20225;-63
2022/01/11 00:43:08;;;;;;;19.40;16.50;;;1.10;99.90;;;1.93;100.00;99105.59;5202386;28;20226;-64
2022/01/11 00:45:42;;;;;;;23.10;18.63;;;1.10;99.90;;;1.93;100.00;99109.00;5204189;28;20229;-63
2022/01/11 00:48:16;;;;;;;25.07;18.20;;;1.20;99.90;;;1.99;100.00;99107.16;5205970;28;20223;-63
2022/01/11 00:50:50;;;;;;;24.37;17.60;;;1.10;99.90;;;1.96;100.00;99110.97;5204182;28;20217;-63
2022/01/11 00:53:23;;;;;;;22.80;18.80;;;1.10;99.90;;;1.82;100.00;99106.94;5204415;28;20708;-62
2022/01/11 00:55:56;;;;;;;20.30;17.20;;;1.00;99.90;;;1.82;100.00;99106.03;5205332;28;20218;-64
2022/01/11 00:58:29;;;;;;;24.27;19.00;;;1.00;99.90;;;1.85;100.00;99111.41;5204065;28;20607;-63
2022/01/11 01:01:04;;;;;;;21.00;16.97;;;1.10;99.90;;;1.86;100.00;99111.59;5204060;28;20229;-63
2022/01/11 01:03:37;;;;;;;22.33;18.60;;;1.10;99.90;;;1.90;100.00;99115.34;5205066;28;20595;-63
2022/01/11 01:06:10;;;;;;;23.20;18.90;;;1.10;99.90;;;1.84;100.00;99110.53;5205519;28;20693;-63
2022/01/11 01:08:43;;;;;;;20.33;17.90;;;1.10;99.90;;;1.76;100.00;99121.38;5201511;28;20236;-63
2022/01/11 01:11:16;;;;;;;20.40;16.53;;;1.10;99.90;;;1.77;100.00;99108.97;5205083;28;20228;-63
2022/01/11 01:13:49;;;;;;;21.27;17.83;;;1.10;99.90;;;1.77;100.00;99119.03;5204846;28;20230;-64
2022/01/11 01:16:24;;;;;;;21.57;17.63;;;1.00;99.90;;;1.78;100.00;99109.84;5203313;28;20224;-63
2022/01/11 01:18:57;;;;;;;23.93;18.93;;;1.10;99.90;;;1.80;100.00;99121.91;5204743;28;20321;-64
2022/01/11 01:21:36;;;;;;;22.40;18.67;;;1.10;99.90;;;1.82;100.00;99118.63;5203917;28;20223;-63
2022/01/11 01:24:12;;;;;;;19.67;17.13;;;1.10;99.90;;;1.85;100.00;99122.38;5204132;28;20742;-63
2022/01/11 01:26:45;;;;;;;19.17;16.57;;;1.10;99.90;;;1.86;100.00;99123.28;5199250;28;20233;-63
2022/01/11 01:29:18;;;;;;;21.93;18.43;;;1.10;99.90;;;1.85;100.00;99117.34;5200520;28;20227;-63
2022/01/11 01:31:52;;;;;;;21.30;17.50;;;1.10;99.90;;;1.86;100.00;99125.81;5197136;28;20221;-63
2022/01/11 01:34:26;;;;;;;20.47;17.50;;;1.10;99.90;;;1.82;100.00;99119.53;5202286;28;20224;-63
2022/01/11 01:36:59;;;;;;;22.23;17.57;;;1.10;99.90;;;1.83;100.00;99120.41;5203245;28;20689;-62
2022/01/11 01:39:32;;;;;;;18.70;16.40;;;1.10;99.90;;;1.86;100.00;99118.25;5203996;28;20217;-63
2022/01/11 01:42:07;;;;;;;22.13;17.70;;;1.10;99.90;;;1.85;100.00;99124.91;5197494;28;20230;-63
2022/01/11 01:44:41;;;;;;;20.63;17.87;;;1.10;99.90;;;1.80;100.00;99119.38;5204148;28;20228;-63
2022/01/11 01:47:15;;;;;;;19.97;17.30;;;1.00;99.90;;;1.80;100.00;99120.97;5199237;28;20228;-63
2022/01/11 01:49:48;;;;;;;19.97;16.87;;;1.10;99.90;;;1.83;100.00;99127.97;5204931;28;20224;-63
2022/01/11 01:52:22;;;;;;;21.83;17.93;;;1.10;99.90;;;1.80;100.00;99129.47;5204151;28;20560;-62
2022/01/11 01:54:55;;;;;;;20.87;16.83;;;1.10;99.90;;;1.83;100.00;99133.91;5201831;28;20217;-61
2022/01/11 01:57:28;;;;;;;21.57;17.07;;;1.10;99.90;;;1.89;100.00;99142.19;5195307;28;20223;-62
2022/01/11 02:00:07;;;;;;;22.57;18.57;;;1.20;99.90;;;1.91;100.00;99138.19;5197671;28;20226;-63
2022/01/11 02:02:42;;;;;;;21.53;18.33;;;1.20;99.90;;;1.91;100.00;99125.59;5202831;28;20234;-62
2022/01/11 02:05:15;;;;;;;22.37;18.10;;;1.20;99.90;;;2.07;100.00;99125.66;5203721;28;20271;-63
2022/01/11 02:07:48;;;;;;;22.00;17.93;;;1.20;99.90;;;1.95;100.00;99136.94;5202668;28;20225;-64
2022/01/11 02:10:21;;;;;;;19.90;16.63;;;1.20;99.90;;;1.95;100.00;99139.44;5198375;28;20218;-62
2022/01/11 02:12:54;;;;;;;20.50;17.33;;;1.10;99.90;;;2.02;100.00;99142.78;5203773;28;20719;-62
2022/01/11 02:15:28;;;;;;;20.77;17.73;;;1.10;99.90;;;2.01;100.00;99140.13;5199407;28;20217;-63
2022/01/11 02:18:11;;;;;;;21.77;16.87;;;1.20;99.90;;;2.06;100.00;99136.50;5202291;28;20313;-63
2022/01/11 02:20:49;;;;;;;22.33;18.33;;;1.20;99.90;;;2.01;100.00;99135.06;5203867;28;20214;-64
2022/01/11 02:23:23;;;;;;;22.57;18.23;;;1.20;99.90;;;1.98;100.00;99132.22;5203171;28;20752;-63
2022/01/11 02:25:57;;;;;;;22.30;17.03;;;1.20;99.90;;;1.96;100.00;99138.72;5203254;28;20232;-63
2022/01/11 02:28:30;;;;;;;20.60;17.50;;;1.20;99.90;;;1.95;100.00;99130.25;5201116;28;20229;-63
2022/01/11 02:31:12;;;;;;;20.20;16.80;;;1.20;99.90;;;1.95;100.00;99136.94;5202379;28;20220;-63
2022/01/11 02:33:47;;;;;;;21.07;16.97;;;1.10;99.90;;;1.89;100.00;99129.59;5204473;28;20225;-62
2022/01/11 02:36:24;;;;;;;19.90;16.10;;;1.10;99.90;;;1.90;100.00;99133.88;5202188;28;20722;-63
2022/01/11 02:38:59;;;;;;;20.27;18.00;;;1.10;99.90;;;1.87;100.00;99137.69;5202987;28;20213;-64
2022/01/11 02:41:32;;;;;;;20.53;17.40;;;1.10;99.90;;;1.80;100.00;99129.47;5202112;28;20759;-62
2022/01/11 02:44:06;;;;;;;20.10;17.93;;;1.10;99.90;;;1.83;100.00;99140.59;5203605;28;20697;-63
2022/01/11 02:46:39;;;;;;;21.60;18.13;;;1.10;99.90;;;1.79;100.00;99136.84;5202354;28;20602;-62
2022/01/11 02:49:12;;;;;;;23.53;18.40;;;1.10;99.90;;;1.74;100.00;99138.84;5203255;28;20221;-63
2022/01/11 02:51:48;;;;;;;21.50;17.43;;;1.10;99.90;;;1.73;100.00;99137.06;5197598;28;20221;-62
2022/01/11 02:54:21;;;;;;;21.20;17.63;;;1.00;99.90;;;1.72;100.00;99131.84;5199332;28;20228;-63
2022/01/11 02:56:54;;;;;;;24.40;18.87;;;1.00;99.90;;;1.77;100.00;99130.72;5204612;28;20222;-62
2022/01/11 02:59:27;;;;;;;25.23;19.93;;;1.00;99.90;;;1.67;100.00;99128.81;5202415;28;20226;-64
2022/01/11 03:02:00;;;;;;;21.50;18.20;;;1.00;99.90;;;1.68;100.00;99124.66;5203225;28;20225;-64
2022/01/11 03:04:34;;;;;;;24.90;20.17;;;0.90;99.90;;;1.63;100.00;99131.72;5203625;28;20827;-62
2022/01/11 03:07:08;;;;;;;21.83;17.93;;;0.90;99.90;;;1.60;100.00;99133.88;5203949;28;20681;-63
2022/01/11 03:09:55;;;;;;;22.30;18.17;;;0.90;99.90;;;1.63;100.00;99144.31;5202482;28;20221;-63
2022/01/11 03:12:28;;;;;;;21.00;18.40;;;0.90;99.90;;;1.59;100.00;99134.63;5195667;28;20221;-63
2022/01/11 03:15:01;;;;;;;23.40;18.17;;;0.80;99.90;;;1.54;100.00;99138.22;5202398;28;20225;-63
2022/01/11 03:17:34;;;;;;;25.03;18.33;;;0.80;99.90;;;1.52;100.00;99134.66;5196657;28;20215;-63
2022/01/11 03:20:10;;;;;;;23.43;19.43;;;0.80;99.90;;;1.46;100.00;99133.94;5202070;28;20220;-63
2022/01/11 03:22:45;;;;;;;21.40;18.03;;;0.80;99.90;;;1.51;100.00;99141.31;5206401;28;20614;-63
2022/01/11 03:25:18;;;;;;;24.73;18.67;;;0.80;99.90;;;1.57;100.00;99139.50;5205648;28;20221;-63
2022/01/11 03:27:51;;;;;;;21.77;19.23;;;0.80;99.90;;;1.61;100.00;99135.69;5198650;28;20233;-63
2022/01/11 03:30:25;;;;;;;21.70;17.20;;;0.80;99.90;;;1.61;100.00;99144.88;5206057;28;20229;-63
2022/01/11 03:32:58;;;;;;;20.10;16.93;;;0.80;99.90;;;1.57;100.00;99147.06;5208121;28;20213;-63
2022/01/11 03:35:31;;;;;;;22.87;18.33;;;0.80;99.90;;;1.63;100.00;99154.41;5205721;28;20236;-64
2022/01/11 03:38:10;;;;;;;22.10;18.90;;;0.80;99.90;;;1.66;100.00;99149.72;5207237;28;20304;-64
2022/01/11 03:40:43;;;;;;;23.03;17.90;;;0.80;99.90;;;1.48;100.00;99147.63;5205622;28;20595;-63
2022/01/11 03:43:21;;;;;;;24.43;19.63;;;0.80;99.90;;;1.51;100.00;99147.97;5206422;28;20686;-63
2022/01/11 03:45:54;;;;;;;23.83;18.33;;;0.80;99.90;;;1.56;100.00;99154.44;5206222;28;20222;-64
2022/01/11 03:48:27;;;;;;;26.53;20.20;;;0.80;99.90;;;1.62;100.00;99151.69;5205991;28;20248;-63
2022/01/11 03:51:01;;;;;;;28.47;19.63;;;0.90;99.90;;;1.61;100.00;99158.38;5207318;28;20221;-63
2022/01/11 03:53:49;;;;;;;26.47;18.50;;;0.90;99.90;;;1.63;100.00;99156.94;5206811;28;20243;-63
2022/01/11 03:56:22;;;;;;;27.10;20.47;;;0.90;99.90;;;1.62;100.00;99155.09;5205588;28;20925;-62
2022/01/11 03:58:55;;;;;;;29.07;21.53;;;0.90;99.90;;;1.66;100.00;99156.34;5205452;28;20222;-64
2022/01/11 04:01:28;;;;;;;27.83;20.90;;;0.90;99.90;;;1.63;100.00;99156.94;5204068;28;20220;-63
2022/01/11 04:04:01;;;;;;;33.27;22.70;;;0.90;99.90;;;1.61;100.00;99155.84;5205912;28;20312;-63
2022/01/11 04:06:35;;;;;;;28.43;21.33;;;0.90;99.90;;;1.64;100.00;99163.75;5206649;28;20214;-63
2022/01/11 04:09:11;;;;;;;32.03;22.13;;;0.90;99.90;;;1.62;100.00;99159.25;5204649;28;20226;-63
2022/01/11 04:11:45;;;;;;;32.57;22.27;;;0.90;99.90;;;1.58;100.00;99161.44;5205857;28;20228;-63
2022/01/11 04:14:18;;;;;;;29.87;20.63;;;0.90;99.90;;;1.60;100.00;99154.03;5203999;28;20224;-66
2022/01/11 04:16:51;;;;;;;29.27;21.43;;;0.90;99.90;;;1.56;100.00;99155.31;5204352;28;20224;-63
2022/01/11 04:19:24;;;;;;;34.80;23.40;;;0.90;99.90;;;1.57;100.00;99159.66;5205842;28;20218;-64
2022/01/11 04:21:57;;;;;;;32.53;22.03;;;0.80;99.90;;;1.61;100.00;99167.56;5205506;28;20235;-63
2022/01/11 04:24:32;;;;;;;37.83;22.23;;;0.90;99.90;;;1.58;100.00;99168.09;5204259;28;20224;-64
2022/01/11 04:27:07;;;;;;;29.23;20.87;;;0.80;99.90;;;1.60;100.00;99175.81;5204876;28;20221;-64
2022/01/11 04:29:40;;;;;;;39.03;24.23;;;0.90;99.90;;;1.58;100.00;99171.50;5205148;28;20227;-64
2022/01/11 04:32:13;;;;;;;36.57;23.20;;;0.90;99.90;;;1.61;100.00;99176.00;5204566;28;20218;-63
2022/01/11 04:34:46;;;;;;;33.30;22.23;;;0.90;99.90;;;1.62;100.00;99174.38;5198756;28;20232;-64
2022/01/11 04:37:19;;;;;;;29.10;21.97;;;0.90;99.90;;;1.64;100.00;99175.44;5202481;28;20719;-64
2022/01/11 04:39:53;;;;;;;30.30;22.10;;;0.90;99.90;;;1.66;100.00;99168.94;5204189;28;20229;-65
2022/01/11 04:42:27;;;;;;;35.03;23.37;;;0.90;99.90;;;1.70;100.00;99182.06;5205678;28;20223;-65
2022/01/11 04:45:00;;;;;;;32.50;22.47;;;0.90;99.90;;;1.82;100.00;99181.66;5204553;28;20236;-66
2022/01/11 04:47:33;;;;;;;33.97;22.90;;;0.90;99.90;;;1.82;100.00;99182.53;5205831;28;20719;-63
2022/01/11 04:50:09;;;;;;;32.63;23.67;;;0.90;99.90;;;1.82;100.00;99184.16;5205382;28;20241;-64
2022/01/11 04:52:42;;;;;;;30.77;22.60;;;0.90;99.90;;;1.80;100.00;99191.53;5205421;28;20247;-64
2022/01/11 04:55:16;;;;;;;31.03;22.97;;;1.00;99.90;;;1.84;100.00;99191.19;5204877;28;20693;-64
2022/01/11 04:57:49;;;;;;;34.90;23.60;;;1.00;99.90;;;1.84;100.00;99190.28;5205180;28;20217;-65
2022/01/11 05:00:24;;;;;;;31.63;23.20;;;1.00;99.90;;;1.83;100.00;99196.03;5203390;28;20235;-64
2022/01/11 05:02:59;;;;;;;30.67;23.47;;;0.90;99.90;;;1.80;100.00;99184.91;5201352;28;20593;-64
2022/01/11 05:05:32;;;;;;;33.87;25.27;;;0.90;99.90;;;1.82;100.00;99186.69;5201263;28;20217;-64
2022/01/11 05:08:06;;;;;;;33.73;22.83;;;0.90;99.90;;;1.77;100.00;99198.75;5203795;28;20249;-64
2022/01/11 05:10:42;;;;;;;33.23;22.60;;;0.90;99.90;;;1.80;100.00;99192.47;5204134;28;20217;-63
2022/01/11 05:13:18;;;;;;;40.53;26.27;;;0.90;99.90;;;1.76;100.00;99197.88;5200722;28;20221;-64
2022/01/11 05:15:51;;;;;;;34.10;23.10;;;0.90;99.90;;;1.70;100.00;99197.19;5197299;28;20232;-64
2022/01/11 05:18:24;;;;;;;30.37;20.73;;;0.90;99.90;;;1.67;100.00;99199.38;5203930;28;20238;-65
2022/01/11 05:20:58;;;;;;;32.30;22.77;;;0.90;99.90;;;1.69;100.00;99189.44;5204866;28;20225;-64
2022/01/11 05:23:32;;;;;;;31.90;23.20;;;0.90;99.90;;;1.74;100.00;99189.22;5204483;28;20231;-65
2022/01/11 05:26:07;;;;;;;28.90;21.63;;;0.90;99.90;;;1.69;100.00;99200.44;5203883;28;20220;-64
2022/01/11 05:28:40;;;;;;;34.70;24.03;;;0.90;99.90;;;1.67;100.00;99196.84;5202864;28;20321;-64
2022/01/11 05:31:13;;;;;;;33.17;21.43;;;0.90;99.90;;;1.65;100.00;99198.28;5203049;28;20221;-65
2022/01/11 05:33:46;;;;;;;31.57;22.73;;;0.90;99.90;;;1.65;100.00;99203.31;5194735;28;20229;-65
2022/01/11 05:36:19;;;;;;;33.80;24.13;;;0.90;99.90;;;1.63;100.00;99204.78;5204649;28;20218;-65
2022/01/11 05:38:52;;;;;;;31.93;23.47;;;0.90;99.90;;;1.65;100.00;99207.47;5204083;28;20222;-64
2022/01/11 05:41:27;;;;;;;36.27;25.17;;;0.90;99.90;;;1.65;100.00;99203.31;5199261;28;20222;-64
2022/01/11 05:44:00;;;;;;;33.07;23.77;;;0.90;99.90;;;1.61;100.00;99207.88;5204258;28;20730;-64
2022/01/11 05:46:33;;;;;;;36.70;23.57;;;0.90;99.90;;;1.63;100.00;99208.91;5201682;28;20232;-64
2022/01/11 05:49:06;;;;;;;35.30;24.40;;;0.90;99.90;;;1.63;100.00;99209.84;5203409;28;20644;-64
2022/01/11 05:51:39;;;;;;;37.90;25.50;;;0.90;99.90;;;1.71;100.00;99211.56;5201388;28;20261;-64
2022/01/11 05:54:12;;;;;;;37.87;25.67;;;0.90;99.90;;;1.68;100.00;99218.78;5204190;28;20220;-64
2022/01/11 05:56:47;;;;;;;36.43;25.43;;;0.90;99.90;;;1.65;100.00;99218.44;5203487;28;20226;-65
2022/01/11 05:59:20;;;;;;;38.73;24.83;;;0.90;99.90;;;1.70;100.00;99229.94;5203000;28;20229;-64
2022/01/11 06:01:53;;;;;;;36.30;25.37;;;0.90;99.90;;;1.70;100.00;99240.03;5198649;28;20224;-64
2022/01/11 06:04:26;;;;;;;37.77;25.03;;;0.90;99.90;;;1.72;100.00;99238.59;5201545;28;20222;-64
2022/01/11 06:06:59;;;;;;;40.23;26.07;;;0.90;99.90;;;1.69;100.00;99239.84;5204474;28;20224;-64
2022/01/11 06:09:32;;;;;;;37.70;26.53;;;1.00;99.90;;;1.74;100.00;99244.69;5204813;28;20221;-64
2022/01/11 06:12:09;;;;;;;37.13;24.40;;;1.00;99.90;;;1.77;100.00;99240.00;5203356;28;20229;-64
2022/01/11 06:14:42;;;;;;;40.47;26.70;;;1.10;99.90;;;1.79;100.00;99252.78;5203088;28;20223;-64
2022/01/11 06:17:15;;;;;;;33.07;23.13;;;1.10;99.90;;;1.75;100.00;99256.56;5202734;28;20225;-64
2022/01/11 06:19:48;;;;;;;32.83;22.77;;;1.00;99.90;;;1.80;100.00;99263.03;5195855;28;20596;-64
2022/01/11 06:22:21;;;;;;;30.13;23.13;;;1.00;99.90;;;1.78;100.00;99256.03;5204549;28;20217;-64
2022/01/11 06:24:54;;;;;;;28.13;21.83;;;1.00;99.90;;;1.78;100.00;99261.06;5198443;28;20222;-64
2022/01/11 06:27:29;;;;;;;28.97;21.13;;;1.00;99.90;;;1.82;100.00;99262.31;5199142;28;20704;-64
2022/01/11 06:30:02;;;;;;;29.97;21.83;;;1.10;99.90;;;1.85;100.00;99262.66;5201661;28;20227;-64
2022/01/11 06:32:36;;;;;;;28.47;21.67;;;1.10;99.90;;;1.82;100.00;99262.31;5201584;28;20569;-64
2022/01/11 06:35:11;;;;;;;29.23;22.37;;;1.10;99.90;;;1.86;100.00;99270.41;5203510;28;20235;-64
2022/01/11 06:37:44;;;;;;;33.40;23.77;;;1.10;99.90;;;1.88;100.00;99278.13;5198661;28;20225;-64
2022/01/11 06:40:20;;;;;;;30.97;23.43;;;1.10;99.90;;;1.86;100.00;99279.56;5202429;28;20222;-64
2022/01/11 06:42:55;;;;;;;30.97;22.17;;;1.00;99.90;;;1.86;100.00;99284.59;5202447;28;20232;-64
2022/01/11 06:45:28;;;;;;;33.40;23.63;;;1.10;99.90;;;1.86;100.00;99279.56;5203383;28;20231;-64
2022/01/11 06:48:03;;;;;;;31.43;22.60;;;1.10;99.90;;;1.88;100.00;99283.16;5202223;28;20232;-64
2022/01/11 06:50:37;;;;;;;32.63;22.03;;;1.10;99.90;;;1.89;100.00;99289.97;5202943;28;20236;-64
2022/01/11 06:53:11;;;;;;;30.97;22.50;;;1.10;99.90;;;1.91;100.00;99283.50;5204170;28;20225;-64
2022/01/11 06:55:44;;;;;;;35.10;23.07;;;1.10;99.90;;;1.93;100.00;99289.63;5202066;28;20225;-64
2022/01/11 06:58:18;;;;;;;34.90;27.63;;;1.20;99.90;;;1.96;100.00;99282.41;5204079;28;20216;-64
2022/01/11 07:00:52;;;;;;;70.47;52.10;;;1.10;99.90;;;1.99;100.00;99295.34;5205743;28;20228;-64
2022/01/11 07:03:30;;;;;;;62.93;48.67;;;1.20;99.90;;;2.05;100.00;99295.16;5207037;28;20678;-65
2022/01/11 07:06:04;;;;;;;39.07;29.80;;;1.20;99.90;;;1.99;100.00;99297.88;5204443;28;20231;-66
2022/01/11 07:08:37;;;;;;;34.20;26.40;;;1.20;99.90;;;2.00;100.00;99297.16;5203452;28;20701;-64
2022/01/11 07:11:12;;;;;;;35.13;23.83;;;1.20;99.90;;;2.03;100.00;99305.06;5205573;28;20685;-65
2022/01/11 07:13:46;;;;;;;30.30;23.10;;;1.20;99.90;;;2.01;100.00;99301.47;5206066;28;20221;-65
2022/01/11 07:16:19;;;;;;;31.80;23.70;;;1.20;99.90;;;2.00;100.00;99305.63;5209267;28;20228;-65
2022/01/11 07:18:52;;;;;;;31.03;23.27;;;1.20;99.90;;;2.02;100.00;99308.31;5207465;28;20248;-65
2022/01/11 07:21:26;;;;;;;25.10;21.00;;;1.20;99.90;;;2.02;100.00;99315.88;5207677;28;20700;-64
2022/01/11 07:23:59;;;;;;;31.07;22.73;;;1.30;99.90;;;2.06;100.00;99314.59;5205856;28;20221;-65
2022/01/11 07:26:33;;;;;;;27.57;22.57;;;1.30;99.90;;;2.02;100.00;99315.88;5206385;28;20222;-65
2022/01/11 07:29:07;;;;;;;28.90;23.20;;;1.30;99.90;;;2.01;100.00;99314.09;5204929;28;20243;-65
2022/01/11 07:31:41;;;;;;;26.93;21.63;;;1.30;99.90;;;2.03;100.00;99321.09;5206180;28;20213;-65
2022/01/11 07:34:16;;;;;;;28.00;22.43;;;1.30;99.90;;;1.95;100.00;99314.28;5207759;28;20690;-65
2022/01/11 07:36:49;;;;;;;28.23;22.23;;;1.30;99.90;;;1.99;100.00;99318.06;5206646;28;20228;-64
2022/01/11 07:39:23;;;;;;;27.90;20.80;;;1.30;99.90;;;2.03;100.00;99316.06;5206057;28;20304;-65
2022/01/11 07:41:56;;;;;;;27.53;22.20;;;1.30;99.90;;;2.09;100.00;99320.91;5205761;28;20228;-64
2022/01/11 07:44:30;;;;;;;29.37;22.47;;;1.30;99.90;;;2.07;100.00;99326.50;5206360;28;20225;-65
2022/01/11 07:47:04;;;;;;;25.20;20.67;;;1.30;99.90;;;2.10;100.00;99330.25;5205725;28;20239;-65
2022/01/11 07:49:42;;;;;;;26.77;21.77;;;1.30;99.90;;;2.15;100.00;99331.69;5206796;28;20271;-65
2022/01/11 07:52:16;;;;;;;26.10;21.00;;;1.40;99.90;;;2.15;100.00;99341.75;5207020;28;20268;-64
2022/01/11 07:54:49;;;;;;;27.70;22.20;;;1.40;99.90;;;2.20;100.00;99330.59;5205092;28;20236;-65
2022/01/11 07:57:22;;;;;;;27.43;21.37;;;1.40;99.90;;;2.20;100.00;99328.06;5205697;28;20232;-64
2022/01/11 07:59:56;;;;;;;31.33;23.90;;;1.40;99.90;;;2.14;100.00;99331.50;5205462;28;20689;-64
2022/01/11 08:02:29;;;;;;;25.80;20.67;;;1.50;99.90;;;2.22;100.00;99333.25;5204690;28;20219;-64
2022/01/11 08:05:04;;;;;;;28.83;22.07;;;1.50;99.90;;;2.29;100.00;99339.88;5203890;28;20222;-65
2022/01/11 08:07:37;;;;;;;25.90;21.10;;;1.50;99.90;;;2.26;100.00;99337.91;5206242;28;20249;-64
2022/01/11 08:10:11;;;;;;;30.00;22.37;;;1.50;99.90;;;2.26;100.00;99350.53;5202466;28;20599;-65
2022/01/11 08:12:45;;;;;;;23.93;21.10;;;1.50;99.90;;;2.24;100.00;99345.31;5204390;28;20527;-64
2022/01/11 08:15:20;;;;;;;25.03;21.17;;;1.50;99.90;;;2.25;100.00;99354.69;5204885;28;20214;-64
2022/01/11 08:17:53;;;;;;;25.10;20.40;;;1.50;99.90;;;2.29;100.00;99358.47;5204247;28;20319;-64
2022/01/11 08:20:26;;;;;;;26.90;22.20;;;1.50;99.90;;;2.37;100.00;99354.25;5205829;28;20213;-64
2022/01/11 08:22:59;;;;;;;26.53;22.30;;;1.60;99.90;;;2.42;100.00;99355.69;5206208;28;21045;-64
2022/01/11 08:25:33;;;;;;;27.27;21.67;;;1.60;99.90;;;2.40;100.00;99349.56;5205927;28;20221;-64
2022/01/11 08:28:07;;;;;;;27.50;22.70;;;1.60;99.90;;;2.47;100.00;99354.59;5204426;28;20283;-64
2022/01/11 08:30:43;;;;;;;29.07;23.43;;;1.70;99.90;;;2.40;100.00;99360.53;5204911;28;20241;-64
2022/01/11 08:33:16;;;;;;;26.03;21.47;;;1.60;99.90;;;2.48;100.00;99358.88;5205693;28;20520;-64
2022/01/11 08:35:49;;;;;;;27.73;21.83;;;1.70;99.90;;;2.49;100.00;99358.19;5205535;28;20697;-64
2022/01/11 08:38:22;;;;;;;24.63;21.43;;;1.70;99.90;;;2.47;100.00;99363.03;5205644;28;20581;-64
2022/01/11 08:40:56;;;;;;;32.40;22.23;;;1.70;99.90;;;2.57;99.70;99371.66;5205238;28;20232;-64
2022/01/11 08:43:29;;;;;;;28.57;22.43;;;1.70;99.90;;;2.61;99.84;99366.22;5204810;28;20228;-64
2022/01/11 08:46:04;;;;;;;27.03;21.23;;;1.80;99.90;;;2.64;100.00;99374.16;5205475;28;20227;-64
2022/01/11 08:48:37;;;;;;;29.60;22.87;;;1.80;99.90;;;2.64;100.00;99372.50;5203628;28;20229;-65
2022/01/11 08:51:10;;;;;;;26.17;21.00;;;1.80;99.90;;;2.69;99.89;99375.56;5205237;28;20326;-64
2022/01/11 08:53:44;;;;;;;27.97;22.30;;;1.80;99.90;;;2.75;99.78;99373.72;5204044;28;20224;-65
2022/01/11 08:56:17;;;;;;;26.90;22.37;;;1.90;99.90;;;2.72;100.00;99375.91;5206201;28;20220;-64
2022/01/11 08:58:50;;;;;;;31.37;23.53;;;2.00;99.90;;;2.84;99.81;99387.34;5204738;28;20224;-64
2022/01/11 09:01:26;;;;;;;28.00;21.90;;;2.00;99.90;;;2.87;99.42;99387.69;5206044;28;20233;-64
2022/01/11 09:04:00;;;;;;;26.97;22.30;;;2.00;99.90;;;2.83;98.42;99384.66;5202156;28;20791;-65
2022/01/11 09:06:33;;;;;;;25.87;22.43;;;1.90;99.90;;;2.76;99.08;99387.22;5204144;28;20708;-64
2022/01/11 09:09:21;;;;;;;25.90;21.63;;;2.00;99.90;;;2.80;99.06;99389.34;5204123;28;20752;-65
2022/01/11 09:11:55;;;;;;;27.87;22.73;;;2.00;99.90;;;2.84;99.53;99396.56;5202491;28;20608;-64
2022/01/11 09:14:28;;;;;;;24.63;20.03;;;2.00;99.90;;;2.90;99.01;99398.13;5204893;28;20226;-65
2022/01/11 09:17:03;;;;;;;27.07;20.97;;;2.10;99.90;;;2.88;99.59;99396.16;5205002;28;20352;-64
2022/01/11 09:19:36;;;;;;;29.50;22.10;;;2.10;99.90;;;2.90;98.98;99397.25;5201976;28;20224;-66
2022/01/11 09:22:09;;;;;;;29.70;22.57;;;2.10;99.90;;;2.93;99.90;99395.06;5204792;28;20659;-64
2022/01/11 09:24:43;;;;;;;24.93;20.83;;;2.10;99.90;;;3.00;98.99;99401.69;5204467;28;20223;-65
2022/01/11 09:27:16;;;;;;;28.20;21.60;;;2.10;99.90;;;2.94;98.86;99399.38;5203567;28;20728;-64
2022/01/11 09:29:49;;;;;;;26.33;20.40;;;2.20;99.90;;;2.99;98.77;99403.31;5203193;28;20244;-64
2022/01/11 09:32:25;;;;;;;28.07;20.77;;;2.20;99.90;;;3.09;99.58;99403.63;5204751;28;20232;-64
2022/01/11 09:34:58;;;;;;;26.57;21.60;;;2.30;99.90;;;3.12;99.32;99401.44;5201838;28;20584;-64
2022/01/11 09:37:31;;;;;;;28.63;20.40;;;2.40;99.90;;;3.19;99.60;99402.09;5204289;28;20320;-64
2022/01/11 09:40:06;;;;;;;26.80;21.03;;;2.40;99.90;;;3.27;99.08;99396.25;5204112;28;20216;-64
2022/01/11 09:42:40;;;;;;;28.23;21.73;;;2.50;99.90;;;3.32;98.91;99398.56;5203801;28;20227;-64
2022/01/11 09:45:15;;;;;;;26.20;21.17;;;2.50;99.90;;;3.32;99.07;99396.03;5203829;28;20224;-64
2022/01/11 09:47:49;;;;;;;26.53;22.33;;;2.50;99.90;;;3.39;99.01;99402.66;5203439;28;20228;-65
2022/01/11 09:50:22;;;;;;;23.53;21.10;;;2.50;99.90;;;3.44;98.38;99393.94;5203825;28;20307;-64
2022/01/11 09:52:56;;;;;;;26.40;21.47;;;2.60;99.90;;;3.52;98.84;99394.78;5203963;28;20227;-65
2022/01/11 09:55:29;;;;;;;28.63;21.40;;;2.60;99.90;;;3.56;98.06;99396.91;5203827;28;20217;-64
2022/01/11 09:58:05;;;;;;;24.83;20.90;;;2.70;99.90;;;3.60;98.08;99391.44;5203405;28;20263;-65
2022/01/11 10:00:38;;;;;;;31.20;23.23;;;2.80;99.90;;;3.59;97.58;99402.31;5202159;28;20233;-65
2022/01/11 10:03:14;;;;;;;26.30;20.37;;;2.80;99.90;;;3.68;97.99;99399.88;5202307;28;20222;-63
2022/01/11 10:05:51;;;;;;;28.83;22.20;;;2.80;99.90;;;3.65;98.10;99397.91;5199979;28;20319;-65
2022/01/11 10:08:28;;;;;;;24.93;21.80;;;2.90;99.90;;;3.74;97.66;99400.53;5202951;28;20218;-64
2022/01/11 10:11:02;;;;;;;30.50;23.87;;;2.90;99.90;;;3.80;97.43;99396.13;5195901;28;20225;-64
2022/01/11 10:13:38;;;;;;;26.03;22.40;;;3.00;99.90;;;3.86;97.92;99385.78;5202116;28;20232;-64
2022/01/11 10:16:22;;;;;;;25.47;22.17;;;3.00;99.90;;;3.88;97.83;99391.91;5203239;28;20225;-64
2022/01/11 10:18:57;;;;;;;27.37;23.70;;;3.10;99.90;;;3.79;96.93;99396.88;5203005;28;20264;-64
2022/01/11 10:21:33;;;;;;;29.33;24.50;;;3.10;99.90;;;4.02;97.03;99390.13;5203179;28;20223;-64
2022/01/11 10:24:34;;;;;;;28.13;23.47;;;3.20;99.90;;;4.09;97.22;99388.25;5203485;28;20233;-64
2022/01/11 10:27:14;;;;;;;27.10;22.60;;;3.20;99.90;;;4.33;96.09;99400.97;5201041;28;20239;-65
2022/01/11 10:29:49;;;;;;;26.87;22.97;;;3.30;99.90;;;4.37;96.06;99392.06;5202713;28;20593;-64
2022/01/11 10:32:27;;;;;;;25.77;22.33;;;3.40;99.90;;;4.36;96.43;99376.00;5202835;28;20253;-65
2022/01/11 10:35:07;;;;;;;29.40;22.53;;;3.50;99.90;;;4.38;96.38;99389.72;5202008;28;20221;-64
2022/01/11 10:37:43;;;;;;;24.80;21.63;;;3.50;99.90;;;4.45;96.81;99387.09;5203665;28;20308;-65
2022/01/11 10:40:20;;;;;;;26.63;23.63;;;3.60;99.90;;;4.54;96.78;99391.31;5202796;28;20210;-64
2022/01/11 10:42:56;;;;;;;26.90;22.53;;;3.70;99.90;;;4.60;96.39;99386.91;5196276;28;20243;-64